createdAt,value
2023-03-27T00:01:28.873Z,10.59
2023-03-27T00:03:57.526Z,10.41
2023-03-27T00:06:25.454Z,10.35
2023-03-27T00:08:53.525Z,10.35
2023-03-27T00:11:22.142Z,10.24
2023-03-27T00:13:50.870Z,10.47
2023-03-27T00:16:20.379Z,10.50
2023-03-27T00:18:48.380Z,10.59
2023-03-27T00:21:16.318Z,10.58
2023-03-27T00:23:44.216Z,10.40
2023-03-27T00:26:12.327Z,10.33
2023-03-27T00:28:40.029Z,10.32
2023-03-27T00:31:15.199Z,10.27
2023-03-27T00:33:43.512Z,10.24
2023-03-27T00:36:11.608Z,10.27
2023-03-27T00:38:39.248Z,10.24
2023-03-27T00:41:07.662Z,10.14
2023-03-27T00:43:43.015Z,10.13
2023-03-27T00:46:33.017Z,10.10
2023-03-27T00:49:04.330Z,10.19
2023-03-27T00:51:32.841Z,10.23
2023-03-27T00:54:00.653Z,10.14
2023-03-27T00:56:28.781Z,9.55
2023-03-27T00:59:00.926Z,9.40
2023-03-27T01:01:30.251Z,9.52
2023-03-27T01:04:00.915Z,9.47
2023-03-27T01:06:30.160Z,9.43
2023-03-27T01:08:58.759Z,10.07
2023-03-27T01:12:09.548Z,10.21
2023-03-27T01:14:52.715Z,10.13
2023-03-27T01:17:49.629Z,9.99
2023-03-27T01:20:56.590Z,9.92
2023-03-27T01:24:08.378Z,10.03
2023-03-27T01:26:42.281Z,10.04
2023-03-27T01:29:45.382Z,10.19
2023-03-27T01:32:40.946Z,10.07
2023-03-27T01:35:23.522Z,10.07
2023-03-27T01:37:57.223Z,10.26
2023-03-27T01:40:25.171Z,10.15
2023-03-27T01:43:04.344Z,10.14
2023-03-27T01:46:03.688Z,10.22
2023-03-27T01:48:39.048Z,9.91
2023-03-27T01:51:11.906Z,9.83
2023-03-27T01:53:48.803Z,9.80
2023-03-27T01:56:20.785Z,9.78
2023-03-27T01:58:50.054Z,9.85
2023-03-27T02:01:22.057Z,9.77
2023-03-27T02:03:53.671Z,9.82
2023-03-27T02:06:30.672Z,9.98
2023-03-27T02:09:03.448Z,10.06
2023-03-27T02:11:36.947Z,10.20
2023-03-27T02:14:09.264Z,10.04
2023-03-27T02:16:40.895Z,10.19
2023-03-27T02:19:14.264Z,10.25
2023-03-27T02:21:42.217Z,10.17
2023-03-27T02:24:10.370Z,10.41
2023-03-27T02:26:39.770Z,10.30
2023-03-27T02:29:18.825Z,10.12
2023-03-27T02:32:02.638Z,10.11
2023-03-27T02:34:30.423Z,10.06
2023-03-27T02:37:03.111Z,9.97
2023-03-27T02:39:51.678Z,10.13
2023-03-27T02:42:37.954Z,10.06
2023-03-27T02:45:45.056Z,10.06
2023-03-27T02:48:35.558Z,9.81
2023-03-27T02:51:08.148Z,9.63
2023-03-27T02:53:41.183Z,9.33
2023-03-27T02:56:09.911Z,9.29
2023-03-27T02:58:42.892Z,9.46
2023-03-27T03:01:12.045Z,9.37
2023-03-27T03:03:46.726Z,9.47
2023-03-27T03:06:14.832Z,9.35
2023-03-27T03:08:43.569Z,9.29
2023-03-27T03:11:13.348Z,9.28
2023-03-27T03:13:41.468Z,9.12
2023-03-27T03:16:09.772Z,8.98
2023-03-27T03:18:37.578Z,9.07
2023-03-27T03:21:05.497Z,9.27
2023-03-27T03:23:33.658Z,9.14
2023-03-27T03:26:01.823Z,9.20
2023-03-27T03:28:32.118Z,9.15
2023-03-27T03:31:00.751Z,9.13
2023-03-27T03:33:28.915Z,8.98
2023-03-27T03:35:57.726Z,8.99
2023-03-27T03:38:25.764Z,9.09
2023-03-27T03:40:55.565Z,9.02
2023-03-27T03:43:25.516Z,8.90
2023-03-27T03:45:54.643Z,8.99
2023-03-27T03:48:22.915Z,8.99
2023-03-27T03:50:50.959Z,8.89
2023-03-27T03:53:20.990Z,8.88
2023-03-27T03:55:51.066Z,8.88
2023-03-27T03:58:19.399Z,8.94
2023-03-27T04:00:47.216Z,8.87
2023-03-27T04:03:20.353Z,8.88
2023-03-27T04:05:48.101Z,8.96
2023-03-27T04:08:16.130Z,8.92
2023-03-27T04:10:45.462Z,9.04
2023-03-27T04:13:13.849Z,9.03
2023-03-27T04:15:45.743Z,8.93
2023-03-27T04:18:14.633Z,9.00
2023-03-27T04:20:42.696Z,8.82
2023-03-27T04:23:10.892Z,8.88
2023-03-27T04:25:38.681Z,8.98
2023-03-27T04:28:06.755Z,8.85
2023-03-27T04:30:35.936Z,8.85
2023-03-27T04:33:06.451Z,8.79
2023-03-27T04:35:35.065Z,8.72
2023-03-27T04:38:03.009Z,8.77
2023-03-27T04:40:31.475Z,8.72
2023-03-27T04:42:59.539Z,8.90
2023-03-27T04:45:27.250Z,8.67
2023-03-27T04:47:55.633Z,8.72
2023-03-27T04:50:24.890Z,8.56
2023-03-27T04:52:59.569Z,8.70
2023-03-27T04:55:28.935Z,8.73
2023-03-27T04:57:56.715Z,8.68
2023-03-27T05:00:24.943Z,8.66
2023-03-27T05:02:55.199Z,8.49
2023-03-27T05:05:23.841Z,8.72
2023-03-27T05:07:52.008Z,8.79
2023-03-27T05:10:22.251Z,8.74
2023-03-27T05:12:51.430Z,8.72
2023-03-27T05:15:19.868Z,8.79
2023-03-27T05:17:48.324Z,8.84
2023-03-27T05:20:16.798Z,8.71
2023-03-27T05:22:45.948Z,8.50
2023-03-27T05:25:16.540Z,8.59
2023-03-27T05:27:47.941Z,8.66
2023-03-27T05:30:21.091Z,8.66
2023-03-27T05:32:50.929Z,8.66
2023-03-27T05:35:21.438Z,8.69
2023-03-27T05:37:51.600Z,8.75
2023-03-27T05:40:24.444Z,8.55
2023-03-27T05:42:52.428Z,8.70
2023-03-27T05:45:21.999Z,8.55
2023-03-27T05:47:52.401Z,8.55
2023-03-27T05:50:23.872Z,8.49
2023-03-27T05:53:03.986Z,8.54
2023-03-27T05:55:32.544Z,8.57
2023-03-27T05:58:01.140Z,8.62
2023-03-27T06:00:29.133Z,8.65
2023-03-27T06:02:59.011Z,8.67
2023-03-27T06:05:32.435Z,8.60
2023-03-27T06:08:02.793Z,8.56
2023-03-27T06:10:30.968Z,8.58
2023-03-27T06:13:01.324Z,8.69
2023-03-27T06:15:29.614Z,8.70
2023-03-27T06:17:58.766Z,8.82
2023-03-27T06:20:31.099Z,8.54
2023-03-27T06:23:00.734Z,8.74
2023-03-27T06:25:30.929Z,8.74
2023-03-27T06:27:59.160Z,8.62
2023-03-27T06:30:27.224Z,8.64
2023-03-27T06:32:59.080Z,8.67
2023-03-27T06:35:29.433Z,8.69
2023-03-27T06:37:58.063Z,8.65
2023-03-27T06:40:28.220Z,8.79
2023-03-27T06:43:09.624Z,8.74
2023-03-27T06:45:42.517Z,8.74
2023-03-27T06:48:20.519Z,8.73
2023-03-27T06:50:50.960Z,8.77
2023-03-27T06:55:50.692Z,8.73
2023-03-27T06:58:19.288Z,8.70
2023-03-27T07:00:47.979Z,8.57
2023-03-27T07:03:16.746Z,8.49
2023-03-27T07:05:45.652Z,8.56
2023-03-27T07:08:23.160Z,8.66
2023-03-27T07:11:08.025Z,8.77
2023-03-27T07:13:40.008Z,8.75
2023-03-27T07:16:10.562Z,8.69
2023-03-27T07:18:38.378Z,8.39
2023-03-27T07:21:07.482Z,8.32
2023-03-27T07:23:35.434Z,8.50
2023-03-27T07:26:03.419Z,8.35
2023-03-27T07:28:32.015Z,8.24
2023-03-27T07:31:25.983Z,8.55
2023-03-27T07:34:00.718Z,8.32
2023-03-27T07:36:29.291Z,8.19
2023-03-27T07:38:57.124Z,8.40
2023-03-27T07:41:25.283Z,8.26
2023-03-27T07:43:54.551Z,8.38
2023-03-27T07:46:22.664Z,8.25
2023-03-27T07:48:51.100Z,8.45
2023-03-27T07:51:19.889Z,8.27
2023-03-27T07:53:47.734Z,8.30
2023-03-27T07:56:16.042Z,8.24
2023-03-27T07:58:44.274Z,8.17
2023-03-27T08:01:17.757Z,8.29
2023-03-27T08:03:46.638Z,8.50
2023-03-27T08:06:14.509Z,8.47
2023-03-27T08:08:42.513Z,8.46
2023-03-27T08:11:23.051Z,8.35
2023-03-27T08:13:55.470Z,8.57
2023-03-27T08:16:23.475Z,8.58
2023-03-27T08:18:51.593Z,8.67
2023-03-27T08:21:19.599Z,8.57
2023-03-27T08:23:50.130Z,8.75
2023-03-27T08:26:21.753Z,8.77
2023-03-27T08:28:49.944Z,8.74
2023-03-27T08:31:17.957Z,8.69
2023-03-27T08:33:46.042Z,8.68
2023-03-27T08:36:14.726Z,8.91
2023-03-27T08:38:42.872Z,8.71
2023-03-27T08:41:35.626Z,8.98
2023-03-27T08:44:06.570Z,8.78
2023-03-27T08:46:48.305Z,8.83
2023-03-27T08:49:21.099Z,8.91
2023-03-27T08:52:03.215Z,8.78
2023-03-27T08:54:38.437Z,8.93
2023-03-27T08:57:17.454Z,9.02
2023-03-27T08:59:46.354Z,9.02
2023-03-27T09:02:29.662Z,9.11
2023-03-27T09:05:06.013Z,8.94
2023-03-27T09:07:51.519Z,8.87
2023-03-27T09:10:23.108Z,9.00
2023-03-27T09:13:04.017Z,8.90
2023-03-27T09:16:01.271Z,8.80
2023-03-27T09:18:38.438Z,8.88
2023-03-27T09:21:35.600Z,8.95
2023-03-27T09:24:08.045Z,8.89
2023-03-27T09:26:37.138Z,8.75
2023-03-27T09:29:21.925Z,8.82
2023-03-27T09:31:51.810Z,8.68
2023-03-27T09:34:28.830Z,8.85
2023-03-27T09:36:59.254Z,8.89
2023-03-27T09:39:32.505Z,8.61
2023-03-27T09:42:28.570Z,8.78
2023-03-27T09:45:00.768Z,8.90
2023-03-27T09:47:56.234Z,8.85
2023-03-27T09:50:43.336Z,8.81
2023-03-27T09:53:19.398Z,8.99
2023-03-27T09:56:10.658Z,8.94
2023-03-27T09:58:46.573Z,8.90
2023-03-27T10:01:27.869Z,8.77
2023-03-27T10:03:58.320Z,8.63
2023-03-27T10:06:30.490Z,8.54
2023-03-27T10:08:59.747Z,8.36
2023-03-27T10:11:33.496Z,8.50
2023-03-27T10:14:02.272Z,8.19
2023-03-27T10:16:39.462Z,8.15
2023-03-27T10:19:20.247Z,8.23
2023-03-27T10:21:48.871Z,8.10
2023-03-27T10:24:32.754Z,7.97
2023-03-27T10:27:07.533Z,8.04
2023-03-27T10:29:38.951Z,8.00
2023-03-27T10:32:12.006Z,8.01
2023-03-27T10:34:52.110Z,7.99
2023-03-27T10:37:25.996Z,8.05
2023-03-27T10:39:59.190Z,7.97
2023-03-27T10:42:28.209Z,7.90
2023-03-27T10:44:56.310Z,8.15
2023-03-27T10:47:31.336Z,7.94
2023-03-27T10:50:23.441Z,8.10
2023-03-27T10:53:03.400Z,8.06
2023-03-27T10:56:01.007Z,8.16
2023-03-27T10:58:38.196Z,8.07
2023-03-27T11:01:26.887Z,7.96
2023-03-27T11:04:06.872Z,8.14
2023-03-27T11:06:41.722Z,8.18
2023-03-27T11:09:32.484Z,8.17
2023-03-27T11:12:07.031Z,8.08
2023-03-27T11:15:05.301Z,8.03
2023-03-27T11:17:41.737Z,8.31
2023-03-27T11:20:22.486Z,8.14
2023-03-27T11:23:10.255Z,8.19
2023-03-27T11:25:45.956Z,8.22
2023-03-27T11:28:24.295Z,8.02
2023-03-27T11:31:14.830Z,8.11
2023-03-27T11:33:49.215Z,8.19
2023-03-27T11:36:35.594Z,8.25
2023-03-27T11:39:16.200Z,8.36
2023-03-27T11:41:53.334Z,8.25
2023-03-27T11:44:22.368Z,8.37
2023-03-27T11:47:01.671Z,8.06
2023-03-27T11:50:13.130Z,8.22
2023-03-27T11:52:48.085Z,8.14
2023-03-27T11:55:24.338Z,8.13
2023-03-27T11:57:58.243Z,8.19
2023-03-27T12:00:34.966Z,8.07
2023-03-27T12:03:24.332Z,8.24
2023-03-27T12:06:05.608Z,8.29
2023-03-27T12:08:52.386Z,8.22
2023-03-27T12:11:21.987Z,8.25
2023-03-27T12:14:17.754Z,8.21
2023-03-27T12:17:04.593Z,8.08
2023-03-27T12:19:44.932Z,8.27
2023-03-27T12:22:24.344Z,8.23
2023-03-27T12:25:17.121Z,8.12
2023-03-27T12:27:59.885Z,7.83
2023-03-27T12:30:38.030Z,7.96
2023-03-27T12:33:31.348Z,8.12
2023-03-27T12:36:02.136Z,8.11
2023-03-27T12:38:31.767Z,8.15
2023-03-27T12:41:09.390Z,8.15
2023-03-27T12:43:43.481Z,8.25
2023-03-27T12:46:24.184Z,8.28
2023-03-27T12:49:00.717Z,8.17
2023-03-27T12:51:42.321Z,8.19
2023-03-27T12:54:36.023Z,8.24
2023-03-27T12:57:23.330Z,8.32
2023-03-27T12:59:56.396Z,8.30
2023-03-27T13:02:42.738Z,8.32
2023-03-27T13:05:27.765Z,8.46
2023-03-27T13:07:59.940Z,8.49
2023-03-27T13:10:29.562Z,8.59
2023-03-27T13:13:22.180Z,8.62
2023-03-27T13:16:22.143Z,8.51
2023-03-27T13:19:24.648Z,8.71
2023-03-27T13:22:24.839Z,8.50
2023-03-27T13:25:01.961Z,8.31
2023-03-27T13:27:32.858Z,8.26
2023-03-27T13:30:01.473Z,8.26
2023-03-27T13:32:32.644Z,7.88
2023-03-27T13:35:24.802Z,7.95
2023-03-27T13:37:52.665Z,7.74
2023-03-27T13:40:30.768Z,7.88
2023-03-27T13:43:20.434Z,7.86
2023-03-27T13:45:55.022Z,7.44
2023-03-27T13:48:36.368Z,7.56
2023-03-27T13:51:19.488Z,7.52
2023-03-27T13:54:24.605Z,7.39
2023-03-27T13:56:55.579Z,7.19
2023-03-27T14:00:06.672Z,7.05
2023-03-27T14:03:22.111Z,7.12
2023-03-27T14:06:18.320Z,6.95
2023-03-27T14:09:12.901Z,6.95
2023-03-27T14:12:10.128Z,6.89
2023-03-27T14:14:41.291Z,6.78
2023-03-27T14:17:27.586Z,6.74
2023-03-27T14:20:11.755Z,6.69
2023-03-27T14:22:45.658Z,6.70
2023-03-27T14:25:18.554Z,6.67
2023-03-27T14:27:51.060Z,6.47
2023-03-27T14:30:24.840Z,6.58
2023-03-27T14:32:57.419Z,6.49
2023-03-27T14:35:33.120Z,6.51
2023-03-27T14:38:07.255Z,6.35
2023-03-27T14:40:37.165Z,6.33
2023-03-27T14:43:07.125Z,6.46
2023-03-27T14:45:38.578Z,6.34
2023-03-27T14:48:11.877Z,6.44
2023-03-27T14:50:40.962Z,6.16
2023-03-27T14:53:10.359Z,6.27
2023-03-27T14:55:39.327Z,6.07
2023-03-27T14:58:13.264Z,5.97
2023-03-27T15:00:41.900Z,5.83
2023-03-27T15:03:13.770Z,5.78
2023-03-27T15:05:56.460Z,5.93
2023-03-27T15:08:25.646Z,5.76
2023-03-27T15:10:58.234Z,5.68
2023-03-27T15:13:33.806Z,5.79
2023-03-27T15:16:02.797Z,5.64
2023-03-27T15:18:34.818Z,5.48
2023-03-27T15:21:07.036Z,5.38
2023-03-27T15:23:45.771Z,5.49
2023-03-27T15:26:24.187Z,5.41
2023-03-27T15:28:58.869Z,5.42
2023-03-27T15:31:27.796Z,5.39
2023-03-27T15:33:59.146Z,5.18
2023-03-27T15:36:27.246Z,5.11
2023-03-27T15:38:56.050Z,5.31
2023-03-27T15:41:29.801Z,5.16
2023-03-27T15:44:08.062Z,5.06
2023-03-27T15:46:51.591Z,4.99
2023-03-27T15:49:28.591Z,5.03
2023-03-27T15:51:57.500Z,4.95
2023-03-27T15:54:35.034Z,4.82
2023-03-27T15:57:09.560Z,4.74
2023-03-27T15:59:52.029Z,4.82
2023-03-27T16:02:24.144Z,4.74
2023-03-27T16:05:20.125Z,4.82
2023-03-27T16:07:48.609Z,4.45
2023-03-27T16:10:30.770Z,4.37
2023-03-27T16:13:01.262Z,4.43
2023-03-27T16:15:39.855Z,4.28
2023-03-27T16:18:18.361Z,4.46
2023-03-27T16:20:46.548Z,4.38
2023-03-27T16:23:14.688Z,4.34
2023-03-27T16:25:43.752Z,4.40
2023-03-27T16:28:16.787Z,4.37
2023-03-27T16:30:46.372Z,4.32
2023-03-27T16:33:16.462Z,4.40
2023-03-27T16:35:45.298Z,4.23
2023-03-27T16:38:13.906Z,4.30
2023-03-27T16:40:44.318Z,4.45
2023-03-27T16:43:12.301Z,4.40
2023-03-27T16:45:40.224Z,4.40
2023-03-27T16:48:46.156Z,4.48
2023-03-27T16:51:14.439Z,4.33
2023-03-27T16:53:42.772Z,4.40
2023-03-27T16:56:10.662Z,4.35
2023-03-27T16:58:38.927Z,4.42
2023-03-27T17:01:08.418Z,4.40
2023-03-27T17:03:36.696Z,4.30
2023-03-27T17:06:06.800Z,4.25
2023-03-27T17:08:35.660Z,4.32
2023-03-27T17:11:05.172Z,4.22
2023-03-27T17:13:33.468Z,4.18
2023-03-27T17:16:01.922Z,4.26
2023-03-27T17:18:30.081Z,4.32
2023-03-27T17:20:57.899Z,4.28
2023-03-27T17:23:26.161Z,4.13
2023-03-27T17:25:53.914Z,4.34
2023-03-27T17:28:21.946Z,4.25
2023-03-27T17:31:01.039Z,4.36
2023-03-27T17:33:33.346Z,4.31
2023-03-27T17:36:07.431Z,4.27
2023-03-27T17:38:35.671Z,4.37
2023-03-27T17:41:04.253Z,4.38
2023-03-27T17:43:32.393Z,4.45
2023-03-27T17:46:00.414Z,4.26
2023-03-27T17:48:29.153Z,4.30
2023-03-27T17:51:08.327Z,4.29
2023-03-27T17:53:38.385Z,4.41
2023-03-27T17:56:06.597Z,4.26
2023-03-27T17:58:35.854Z,4.28
2023-03-27T18:01:18.620Z,4.20
2023-03-27T18:03:47.408Z,4.20
2023-03-27T18:06:17.104Z,4.18
2023-03-27T18:08:46.460Z,4.16
2023-03-27T18:11:17.742Z,4.18
2023-03-27T18:13:45.742Z,4.12
2023-03-27T18:16:13.632Z,4.10
2023-03-27T18:18:42.045Z,4.07
2023-03-27T18:21:09.918Z,4.08
2023-03-27T18:23:38.064Z,4.04
2023-03-27T18:26:15.027Z,4.03
2023-03-27T18:28:43.357Z,4.02
2023-03-27T18:31:12.377Z,3.86
2023-03-27T18:33:40.647Z,3.98
2023-03-27T18:36:09.072Z,3.91
2023-03-27T18:38:37.648Z,3.74
2023-03-27T18:41:06.336Z,3.91
2023-03-27T18:43:34.761Z,3.79
2023-03-27T18:46:04.536Z,3.74
2023-03-27T18:48:33.901Z,3.65
2023-03-27T18:51:04.270Z,3.64
2023-03-27T18:53:35.340Z,3.45
2023-03-27T18:56:03.504Z,3.49
2023-03-27T18:58:31.602Z,3.42
2023-03-27T19:00:59.977Z,3.33
2023-03-27T19:03:28.877Z,3.38
2023-03-27T19:06:00.008Z,3.29
2023-03-27T19:08:28.517Z,3.26
2023-03-27T19:10:56.838Z,3.35
2023-03-27T19:13:39.873Z,3.21
2023-03-27T19:16:14.871Z,3.25
2023-03-27T19:18:45.366Z,3.30
2023-03-27T19:21:14.054Z,3.28
2023-03-27T19:23:41.975Z,3.22
2023-03-27T19:26:13.414Z,3.24
2023-03-27T19:28:42.855Z,3.17
2023-03-27T19:31:12.341Z,3.24
2023-03-27T19:33:40.702Z,3.31
2023-03-27T19:36:09.364Z,3.29
2023-03-27T19:38:37.754Z,3.21
2023-03-27T19:41:09.125Z,3.14
2023-03-27T19:43:37.844Z,3.31
2023-03-27T19:46:15.945Z,3.23
2023-03-27T19:48:45.488Z,3.27
2023-03-27T19:51:13.950Z,3.33
2023-03-27T19:53:44.455Z,3.17
2023-03-27T19:56:12.777Z,3.14
2023-03-27T19:58:40.793Z,3.18
2023-03-27T20:01:09.718Z,3.06
2023-03-27T20:03:38.775Z,2.98
2023-03-27T20:06:09.107Z,3.13
2023-03-27T20:08:38.591Z,3.07
2023-03-27T20:11:06.674Z,3.04
2023-03-27T20:13:42.533Z,2.96
2023-03-27T20:16:17.551Z,3.03
2023-03-27T20:18:45.936Z,2.95
2023-03-27T20:21:14.238Z,2.98
2023-03-27T20:23:42.493Z,2.99
2023-03-27T20:26:13.257Z,2.89
2023-03-27T20:28:42.174Z,2.97
2023-03-27T20:31:10.323Z,2.98
2023-03-27T20:33:38.852Z,2.82
2023-03-27T20:36:07.057Z,2.93
2023-03-27T20:38:35.084Z,2.85
2023-03-27T20:41:03.858Z,2.83
2023-03-27T20:43:33.171Z,2.78
2023-03-27T20:46:02.860Z,2.80
2023-03-27T20:48:31.239Z,2.83
2023-03-27T20:50:59.141Z,2.84
2023-03-27T20:53:27.805Z,2.83
2023-03-27T20:56:00.312Z,2.76
2023-03-27T20:58:29.127Z,2.78
2023-03-27T21:00:58.051Z,2.73
2023-03-27T21:03:26.150Z,2.84
2023-03-27T21:05:54.231Z,2.77
2023-03-27T21:08:21.874Z,2.84
2023-03-27T21:10:53.807Z,2.79
2023-03-27T21:13:21.912Z,2.67
2023-03-27T21:15:49.652Z,2.81
2023-03-27T21:18:18.478Z,2.77
2023-03-27T21:20:47.216Z,2.69
2023-03-27T21:23:15.134Z,2.74
2023-03-27T21:25:44.287Z,2.88
2023-03-27T21:28:12.778Z,2.89
2023-03-27T21:30:46.284Z,2.82
2023-03-27T21:33:16.448Z,2.93
2023-03-27T21:35:47.910Z,2.92
2023-03-27T21:38:16.978Z,2.85
2023-03-27T21:40:46.632Z,2.75
2023-03-27T21:43:14.721Z,2.78
2023-03-27T21:45:42.885Z,2.77
2023-03-27T21:48:10.773Z,2.78
2023-03-27T21:50:39.688Z,2.94
2023-03-27T21:53:07.718Z,2.62
2023-03-27T21:55:35.358Z,2.74
2023-03-27T21:58:04.690Z,2.65
2023-03-27T22:00:33.962Z,2.65
2023-03-27T22:03:01.933Z,2.65
2023-03-27T22:05:29.995Z,2.71
2023-03-27T22:07:57.775Z,2.62
2023-03-27T22:10:26.789Z,2.57
2023-03-27T22:12:54.514Z,2.56
2023-03-27T22:15:22.169Z,2.69
2023-03-27T22:17:50.146Z,2.57
2023-03-27T22:20:19.818Z,2.66
2023-03-27T22:22:47.506Z,2.59
2023-03-27T22:25:15.401Z,2.57
2023-03-27T22:27:43.531Z,2.60
2023-03-27T22:30:12.576Z,2.56
2023-03-27T22:32:43.698Z,2.51
2023-03-27T22:35:11.318Z,2.58
2023-03-27T22:37:39.399Z,2.55
2023-03-27T22:40:10.130Z,2.43
2023-03-27T22:42:39.041Z,2.61
2023-03-27T22:45:07.433Z,2.43
2023-03-27T22:47:35.146Z,2.42
2023-03-27T22:50:04.112Z,2.36
2023-03-27T22:52:33.395Z,2.41
2023-03-27T22:55:01.027Z,2.38
2023-03-27T22:57:28.820Z,2.61
2023-03-27T22:59:57.878Z,2.41
2023-03-27T23:02:25.745Z,2.41
2023-03-27T23:04:53.371Z,2.41
2023-03-27T23:07:21.417Z,2.37
2023-03-27T23:09:49.825Z,2.46
2023-03-27T23:12:17.492Z,2.46
2023-03-27T23:14:45.457Z,2.41
2023-03-27T23:17:13.158Z,2.42
2023-03-27T23:19:41.569Z,2.26
2023-03-27T23:22:09.555Z,2.41
2023-03-27T23:24:37.220Z,2.29
2023-03-27T23:27:05.105Z,2.27
2023-03-27T23:29:33.544Z,2.30
2023-03-27T23:32:02.985Z,2.40
2023-03-27T23:34:30.910Z,2.36
2023-03-27T23:36:58.946Z,2.26
2023-03-27T23:39:26.613Z,2.23
2023-03-27T23:41:54.435Z,2.27
2023-03-27T23:44:22.361Z,2.26
2023-03-27T23:46:50.041Z,2.24
2023-03-27T23:49:17.756Z,2.24
2023-03-27T23:51:45.714Z,2.21
2023-03-27T23:54:13.607Z,2.31
2023-03-27T23:56:41.256Z,2.26
2023-03-27T23:59:09.169Z,2.17
